sensor_id;sensor_type;location;lat;lon;timestamp;P1;durP1;ratioP1;P2;durP2;ratioP2
1004;SDS011;491;53.480;10.174;2023-03-08T00:01:37;10.13;;;2.13;;
1004;SDS011;491;53.480;10.174;2023-03-08T00:04:03;5.87;;;1.00;;
1004;SDS011;491;53.480;10.174;2023-03-08T00:06:29;1.43;;;0.93;;
1004;SDS011;491;53.480;10.174;2023-03-08T00:08:56;1.40;;;0.57;;
1004;SDS011;491;53.480;10.174;2023-03-08T00:11:22;5.87;;;0.87;;
1004;SDS011;491;53.480;10.174;2023-03-08T00:13:48;0.57;;;0.50;;
1004;SDS011;491;53.480;10.174;2023-03-08T00:16:14;4.17;;;1.50;;
1004;SDS011;491;53.480;10.174;2023-03-08T00:18:40;3.87;;;1.30;;
1004;SDS011;491;53.480;10.174;2023-03-08T00:23:32;5.83;;;1.20;;
1004;SDS011;491;53.480;10.174;2023-03-08T00:25:59;3.23;;;1.10;;
1004;SDS011;491;53.480;10.174;2023-03-08T00:28:25;1.37;;;0.63;;
1004;SDS011;491;53.480;10.174;2023-03-08T00:30:58;4.10;;;1.30;;
1004;SDS011;491;53.480;10.174;2023-03-08T00:33:24;3.50;;;1.10;;
1004;SDS011;491;53.480;10.174;2023-03-08T00:36:12;3.50;;;1.20;;
1004;SDS011;491;53.480;10.174;2023-03-08T00:38:38;2.73;;;1.30;;
1004;SDS011;491;53.480;10.174;2023-03-08T00:41:04;4.63;;;0.83;;
1004;SDS011;491;53.480;10.174;2023-03-08T00:43:30;1.40;;;0.87;;
1004;SDS011;491;53.480;10.174;2023-03-08T00:45:56;2.20;;;1.47;;
1004;SDS011;491;53.480;10.174;2023-03-08T00:48:22;4.23;;;1.60;;
1004;SDS011;491;53.480;10.174;2023-03-08T00:50:48;2.13;;;1.27;;
1004;SDS011;491;53.480;10.174;2023-03-08T00:53:14;2.77;;;1.27;;
1004;SDS011;491;53.480;10.174;2023-03-08T00:55:50;0.87;;;0.87;;
1004;SDS011;491;53.480;10.174;2023-03-08T00:58:16;2.03;;;1.20;;
1004;SDS011;491;53.480;10.174;2023-03-08T01:00:42;1.90;;;1.70;;
1004;SDS011;491;53.480;10.174;2023-03-08T01:03:09;1.40;;;1.30;;
1004;SDS011;491;53.480;10.174;2023-03-08T01:05:41;1.60;;;1.50;;
1004;SDS011;491;53.480;10.174;2023-03-08T01:08:07;2.87;;;1.20;;
1004;SDS011;491;53.480;10.174;2023-03-08T01:10:33;1.40;;;0.87;;
1004;SDS011;491;53.480;10.174;2023-03-08T01:12:59;1.70;;;1.10;;
1004;SDS011;491;53.480;10.174;2023-03-08T01:15:25;4.40;;;2.47;;
1004;SDS011;491;53.480;10.174;2023-03-08T01:17:51;2.37;;;1.30;;
1004;SDS011;491;53.480;10.174;2023-03-08T01:20:17;1.70;;;1.20;;
1004;SDS011;491;53.480;10.174;2023-03-08T01:22:43;1.17;;;0.73;;
1004;SDS011;491;53.480;10.174;2023-03-08T01:25:09;1.77;;;1.67;;
1004;SDS011;491;53.480;10.174;2023-03-08T01:27:35;1.20;;;1.10;;
1004;SDS011;491;53.480;10.174;2023-03-08T01:30:01;1.83;;;1.40;;
1004;SDS011;491;53.480;10.174;2023-03-08T01:32:27;2.50;;;1.43;;
1004;SDS011;491;53.480;10.174;2023-03-08T01:34:53;2.00;;;1.10;;
1004;SDS011;491;53.480;10.174;2023-03-08T01:37:20;1.27;;;0.83;;
1004;SDS011;491;53.480;10.174;2023-03-08T01:39:46;1.00;;;0.90;;
1004;SDS011;491;53.480;10.174;2023-03-08T01:42:11;2.43;;;1.20;;
1004;SDS011;491;53.480;10.174;2023-03-08T01:45:59;1.40;;;1.23;;
1004;SDS011;491;53.480;10.174;2023-03-08T01:47:33;1.07;;;0.97;;
1004;SDS011;491;53.480;10.174;2023-03-08T01:50:07;6.57;;;1.80;;
1004;SDS011;491;53.480;10.174;2023-03-08T01:52:42;1.37;;;1.13;;
1004;SDS011;491;53.480;10.174;2023-03-08T01:55:11;5.33;;;1.70;;
1004;SDS011;491;53.480;10.174;2023-03-08T01:57:38;2.07;;;1.30;;
1004;SDS011;491;53.480;10.174;2023-03-08T02:00:07;2.07;;;1.20;;
1004;SDS011;491;53.480;10.174;2023-03-08T02:02:35;1.37;;;1.00;;
1004;SDS011;491;53.480;10.174;2023-03-08T02:05:04;2.77;;;1.37;;
1004;SDS011;491;53.480;10.174;2023-03-08T02:07:31;1.50;;;1.40;;
1004;SDS011;491;53.480;10.174;2023-03-08T02:09:57;1.90;;;1.43;;
1004;SDS011;491;53.480;10.174;2023-03-08T02:12:23;1.30;;;1.00;;
1004;SDS011;491;53.480;10.174;2023-03-08T02:14:49;5.30;;;1.47;;
1004;SDS011;491;53.480;10.174;2023-03-08T02:17:15;2.30;;;1.30;;
1004;SDS011;491;53.480;10.174;2023-03-08T02:22:07;3.43;;;1.67;;
1004;SDS011;491;53.480;10.174;2023-03-08T02:24:34;8.00;;;3.13;;
1004;SDS011;491;53.480;10.174;2023-03-08T02:27:00;2.77;;;1.80;;
1004;SDS011;491;53.480;10.174;2023-03-08T02:29:27;1.80;;;1.30;;
1004;SDS011;491;53.480;10.174;2023-03-08T02:31:52;2.03;;;1.87;;
1004;SDS011;491;53.480;10.174;2023-03-08T02:34:18;2.80;;;1.77;;
1004;SDS011;491;53.480;10.174;2023-03-08T02:36:44;1.77;;;1.63;;
1004;SDS011;491;53.480;10.174;2023-03-08T02:39:10;1.90;;;1.77;;
1004;SDS011;491;53.480;10.174;2023-03-08T02:41:36;7.03;;;3.13;;
1004;SDS011;491;53.480;10.174;2023-03-08T02:44:02;4.53;;;2.67;;
1004;SDS011;491;53.480;10.174;2023-03-08T02:46:28;3.73;;;1.73;;
1004;SDS011;491;53.480;10.174;2023-03-08T02:48:54;5.40;;;2.60;;
1004;SDS011;491;53.480;10.174;2023-03-08T02:51:23;3.40;;;2.13;;
1004;SDS011;491;53.480;10.174;2023-03-08T02:53:49;3.00;;;2.53;;
1004;SDS011;491;53.480;10.174;2023-03-08T02:56:15;3.63;;;3.33;;
1004;SDS011;491;53.480;10.174;2023-03-08T02:58:41;4.57;;;3.53;;
1004;SDS011;491;53.480;10.174;2023-03-08T03:01:10;6.03;;;3.23;;
1004;SDS011;491;53.480;10.174;2023-03-08T03:03:37;6.13;;;4.60;;
1004;SDS011;491;53.480;10.174;2023-03-08T03:06:11;5.43;;;3.37;;
1004;SDS011;491;53.480;10.174;2023-03-08T03:08:37;5.07;;;4.43;;
1004;SDS011;491;53.480;10.174;2023-03-08T03:11:09;9.50;;;4.27;;
1004;SDS011;491;53.480;10.174;2023-03-08T03:13:35;4.67;;;3.70;;
1004;SDS011;491;53.480;10.174;2023-03-08T03:16:04;5.27;;;4.17;;
1004;SDS011;491;53.480;10.174;2023-03-08T03:18:30;6.13;;;3.60;;
1004;SDS011;491;53.480;10.174;2023-03-08T03:21:01;4.47;;;3.93;;
1004;SDS011;491;53.480;10.174;2023-03-08T03:23:33;6.97;;;3.67;;
1004;SDS011;491;53.480;10.174;2023-03-08T03:26:03;3.83;;;3.47;;
1004;SDS011;491;53.480;10.174;2023-03-08T03:28:30;5.50;;;3.70;;
1004;SDS011;491;53.480;10.174;2023-03-08T03:30:56;5.17;;;4.37;;
1004;SDS011;491;53.480;10.174;2023-03-08T03:33:21;6.30;;;4.07;;
1004;SDS011;491;53.480;10.174;2023-03-08T03:35:47;4.93;;;3.83;;
1004;SDS011;491;53.480;10.174;2023-03-08T03:38:13;5.50;;;4.77;;
1004;SDS011;491;53.480;10.174;2023-03-08T03:40:39;7.97;;;5.47;;
1004;SDS011;491;53.480;10.174;2023-03-08T03:43:05;7.00;;;4.87;;
1004;SDS011;491;53.480;10.174;2023-03-08T03:45:34;8.07;;;5.00;;
1004;SDS011;491;53.480;10.174;2023-03-08T03:48:00;8.90;;;6.43;;
1004;SDS011;491;53.480;10.174;2023-03-08T03:50:26;7.80;;;6.50;;
1004;SDS011;491;53.480;10.174;2023-03-08T03:52:52;9.53;;;6.17;;
1004;SDS011;491;53.480;10.174;2023-03-08T03:55:17;8.10;;;6.10;;
1004;SDS011;491;53.480;10.174;2023-03-08T03:57:43;8.70;;;5.87;;
1004;SDS011;491;53.480;10.174;2023-03-08T04:00:10;7.17;;;5.93;;
1004;SDS011;491;53.480;10.174;2023-03-08T04:02:36;14.10;;;6.00;;
1004;SDS011;491;53.480;10.174;2023-03-08T04:05:02;8.40;;;5.70;;
1004;SDS011;491;53.480;10.174;2023-03-08T04:07:28;7.03;;;5.40;;
1004;SDS011;491;53.480;10.174;2023-03-08T04:09:53;7.30;;;5.83;;
1004;SDS011;491;53.480;10.174;2023-03-08T04:12:19;6.40;;;4.50;;
1004;SDS011;491;53.480;10.174;2023-03-08T04:14:45;7.93;;;5.43;;
1004;SDS011;491;53.480;10.174;2023-03-08T04:17:11;12.30;;;5.10;;
1004;SDS011;491;53.480;10.174;2023-03-08T04:19:37;6.00;;;4.97;;
1004;SDS011;491;53.480;10.174;2023-03-08T04:22:03;8.07;;;6.03;;
1004;SDS011;491;53.480;10.174;2023-03-08T04:24:29;7.80;;;5.50;;
1004;SDS011;491;53.480;10.174;2023-03-08T04:26:55;8.97;;;5.77;;
1004;SDS011;491;53.480;10.174;2023-03-08T04:29:24;6.00;;;5.37;;
1004;SDS011;491;53.480;10.174;2023-03-08T04:31:50;8.23;;;5.90;;
1004;SDS011;491;53.480;10.174;2023-03-08T04:34:16;9.10;;;6.03;;
1004;SDS011;491;53.480;10.174;2023-03-08T04:36:42;9.97;;;6.77;;
1004;SDS011;491;53.480;10.174;2023-03-08T04:39:08;10.93;;;5.73;;
1004;SDS011;491;53.480;10.174;2023-03-08T04:41:33;11.20;;;7.17;;
1004;SDS011;491;53.480;10.174;2023-03-08T04:43:59;7.80;;;5.33;;
1004;SDS011;491;53.480;10.174;2023-03-08T04:46:26;8.30;;;6.93;;
1004;SDS011;491;53.480;10.174;2023-03-08T04:48:52;8.27;;;5.93;;
1004;SDS011;491;53.480;10.174;2023-03-08T04:51:20;8.37;;;6.57;;
1004;SDS011;491;53.480;10.174;2023-03-08T04:53:46;10.00;;;6.43;;
1004;SDS011;491;53.480;10.174;2023-03-08T04:56:12;11.30;;;7.63;;
1004;SDS011;491;53.480;10.174;2023-03-08T04:58:38;7.67;;;4.80;;
1004;SDS011;491;53.480;10.174;2023-03-08T05:01:12;6.70;;;6.00;;
1004;SDS011;491;53.480;10.174;2023-03-08T05:03:38;9.73;;;6.40;;
1004;SDS011;491;53.480;10.174;2023-03-08T05:06:05;9.43;;;6.70;;
1004;SDS011;491;53.480;10.174;2023-03-08T05:08:31;8.17;;;5.60;;
1004;SDS011;491;53.480;10.174;2023-03-08T05:10:58;7.80;;;5.50;;
1004;SDS011;491;53.480;10.174;2023-03-08T05:13:25;7.67;;;5.90;;
1004;SDS011;491;53.480;10.174;2023-03-08T05:15:51;9.30;;;6.43;;
1004;SDS011;491;53.480;10.174;2023-03-08T05:18:17;11.33;;;5.40;;
1004;SDS011;491;53.480;10.174;2023-03-08T05:20:43;8.77;;;5.53;;
1004;SDS011;491;53.480;10.174;2023-03-08T05:23:09;8.47;;;6.87;;
1004;SDS011;491;53.480;10.174;2023-03-08T05:25:41;8.60;;;7.03;;
1004;SDS011;491;53.480;10.174;2023-03-08T05:28:08;10.00;;;6.03;;
1004;SDS011;491;53.480;10.174;2023-03-08T05:30:33;10.00;;;6.10;;
1004;SDS011;491;53.480;10.174;2023-03-08T05:32:59;7.97;;;6.10;;
1004;SDS011;491;53.480;10.174;2023-03-08T05:35:25;11.00;;;6.90;;
1004;SDS011;491;53.480;10.174;2023-03-08T05:37:51;9.63;;;7.10;;
1004;SDS011;491;53.480;10.174;2023-03-08T05:40:17;12.57;;;6.50;;
1004;SDS011;491;53.480;10.174;2023-03-08T05:42:43;11.10;;;6.60;;
1004;SDS011;491;53.480;10.174;2023-03-08T05:45:09;9.33;;;6.57;;
1004;SDS011;491;53.480;10.174;2023-03-08T05:47:35;9.47;;;5.93;;
1004;SDS011;491;53.480;10.174;2023-03-08T05:50:01;9.83;;;5.87;;
1004;SDS011;491;53.480;10.174;2023-03-08T05:52:30;11.23;;;6.93;;
1004;SDS011;491;53.480;10.174;2023-03-08T05:54:56;11.50;;;7.53;;
1004;SDS011;491;53.480;10.174;2023-03-08T05:57:22;12.50;;;6.77;;
1004;SDS011;491;53.480;10.174;2023-03-08T05:59:48;7.87;;;5.17;;
1004;SDS011;491;53.480;10.174;2023-03-08T06:02:14;8.73;;;5.90;;
1004;SDS011;491;53.480;10.174;2023-03-08T06:04:40;8.63;;;5.37;;
1004;SDS011;491;53.480;10.174;2023-03-08T06:07:05;7.80;;;5.27;;
1004;SDS011;491;53.480;10.174;2023-03-08T06:09:31;8.07;;;5.57;;
1004;SDS011;491;53.480;10.174;2023-03-08T06:11:58;8.80;;;5.50;;
1004;SDS011;491;53.480;10.174;2023-03-08T06:14:24;9.50;;;5.97;;
1004;SDS011;491;53.480;10.174;2023-03-08T06:16:49;7.73;;;5.83;;
1004;SDS011;491;53.480;10.174;2023-03-08T06:19:15;10.83;;;6.27;;
1004;SDS011;491;53.480;10.174;2023-03-08T06:21:44;7.43;;;5.43;;
1004;SDS011;491;53.480;10.174;2023-03-08T06:24:10;12.73;;;6.50;;
1004;SDS011;491;53.480;10.174;2023-03-08T06:26:36;6.77;;;5.60;;
1004;SDS011;491;53.480;10.174;2023-03-08T06:29:02;8.50;;;5.40;;
1004;SDS011;491;53.480;10.174;2023-03-08T06:31:28;10.83;;;5.63;;
1004;SDS011;491;53.480;10.174;2023-03-08T06:33:54;11.10;;;6.10;;
1004;SDS011;491;53.480;10.174;2023-03-08T06:36:20;9.20;;;5.37;;
1004;SDS011;491;53.480;10.174;2023-03-08T06:38:46;9.77;;;5.33;;
1004;SDS011;491;53.480;10.174;2023-03-08T06:41:13;13.17;;;6.33;;
1004;SDS011;491;53.480;10.174;2023-03-08T06:43:39;9.90;;;6.30;;
1004;SDS011;491;53.480;10.174;2023-03-08T06:46:12;7.30;;;4.80;;
1004;SDS011;491;53.480;10.174;2023-03-08T06:48:38;6.00;;;4.20;;
1004;SDS011;491;53.480;10.174;2023-03-08T06:51:05;8.60;;;5.40;;
1004;SDS011;491;53.480;10.174;2023-03-08T06:53:31;11.17;;;6.97;;
1004;SDS011;491;53.480;10.174;2023-03-08T06:56:00;8.73;;;6.20;;
1004;SDS011;491;53.480;10.174;2023-03-08T06:58:27;6.67;;;4.93;;
1004;SDS011;491;53.480;10.174;2023-03-08T07:00:53;7.83;;;4.43;;
1004;SDS011;491;53.480;10.174;2023-03-08T07:03:19;8.57;;;5.10;;
1004;SDS011;491;53.480;10.174;2023-03-08T07:05:45;9.40;;;7.53;;
1004;SDS011;491;53.480;10.174;2023-03-08T07:08:11;8.50;;;6.30;;
1004;SDS011;491;53.480;10.174;2023-03-08T07:10:37;11.33;;;5.97;;
1004;SDS011;491;53.480;10.174;2023-03-08T07:13:03;13.60;;;6.80;;
1004;SDS011;491;53.480;10.174;2023-03-08T07:15:28;11.13;;;5.63;;
1004;SDS011;491;53.480;10.174;2023-03-08T07:17:55;10.40;;;5.20;;
1004;SDS011;491;53.480;10.174;2023-03-08T07:20:22;9.43;;;4.30;;
1004;SDS011;491;53.480;10.174;2023-03-08T07:22:48;8.53;;;5.70;;
1004;SDS011;491;53.480;10.174;2023-03-08T07:25:15;8.73;;;5.13;;
1004;SDS011;491;53.480;10.174;2023-03-08T07:27:41;10.03;;;5.70;;
1004;SDS011;491;53.480;10.174;2023-03-08T07:30:07;9.20;;;5.80;;
1004;SDS011;491;53.480;10.174;2023-03-08T07:32:33;11.27;;;5.90;;
1004;SDS011;491;53.480;10.174;2023-03-08T07:34:59;7.70;;;6.03;;
1004;SDS011;491;53.480;10.174;2023-03-08T07:37:28;9.70;;;6.20;;
1004;SDS011;491;53.480;10.174;2023-03-08T07:39:54;9.03;;;5.40;;
1004;SDS011;491;53.480;10.174;2023-03-08T07:42:20;7.87;;;5.40;;
1004;SDS011;491;53.480;10.174;2023-03-08T07:44:46;9.60;;;6.40;;
1004;SDS011;491;53.480;10.174;2023-03-08T07:47:12;10.27;;;5.93;;
1004;SDS011;491;53.480;10.174;2023-03-08T07:49:38;10.57;;;5.33;;
1004;SDS011;491;53.480;10.174;2023-03-08T07:52:04;12.40;;;6.43;;
1004;SDS011;491;53.480;10.174;2023-03-08T07:54:30;14.43;;;5.60;;
1004;SDS011;491;53.480;10.174;2023-03-08T07:56:56;9.90;;;5.80;;
1004;SDS011;491;53.480;10.174;2023-03-08T07:59:22;8.30;;;5.20;;
1004;SDS011;491;53.480;10.174;2023-03-08T08:01:48;8.03;;;5.87;;
1004;SDS011;491;53.480;10.174;2023-03-08T08:04:14;9.57;;;4.73;;
1004;SDS011;491;53.480;10.174;2023-03-08T08:06:40;11.63;;;6.60;;
1004;SDS011;491;53.480;10.174;2023-03-08T08:09:07;8.27;;;4.83;;
1004;SDS011;491;53.480;10.174;2023-03-08T08:11:33;7.60;;;5.17;;
1004;SDS011;491;53.480;10.174;2023-03-08T08:14:00;9.37;;;6.70;;
1004;SDS011;491;53.480;10.174;2023-03-08T08:16:26;7.03;;;4.00;;
1004;SDS011;491;53.480;10.174;2023-03-08T08:18:52;5.67;;;3.70;;
1004;SDS011;491;53.480;10.174;2023-03-08T08:21:18;9.53;;;5.53;;
1004;SDS011;491;53.480;10.174;2023-03-08T08:23:44;8.87;;;4.13;;
1004;SDS011;491;53.480;10.174;2023-03-08T08:26:14;6.63;;;4.37;;
1004;SDS011;491;53.480;10.174;2023-03-08T08:28:41;8.20;;;5.53;;
1004;SDS011;491;53.480;10.174;2023-03-08T08:31:08;6.80;;;4.77;;
1004;SDS011;491;53.480;10.174;2023-03-08T08:33:34;8.67;;;5.20;;
1004;SDS011;491;53.480;10.174;2023-03-08T08:36:02;6.97;;;4.43;;
1004;SDS011;491;53.480;10.174;2023-03-08T08:38:28;5.93;;;4.07;;
1004;SDS011;491;53.480;10.174;2023-03-08T08:40:57;7.63;;;4.20;;
1004;SDS011;491;53.480;10.174;2023-03-08T08:43:23;6.73;;;4.20;;
1004;SDS011;491;53.480;10.174;2023-03-08T08:45:52;6.80;;;4.20;;
1004;SDS011;491;53.480;10.174;2023-03-08T08:48:18;6.67;;;4.07;;
1004;SDS011;491;53.480;10.174;2023-03-08T08:50:44;5.73;;;3.50;;
1004;SDS011;491;53.480;10.174;2023-03-08T08:53:10;4.87;;;4.03;;
1004;SDS011;491;53.480;10.174;2023-03-08T08:55:36;6.40;;;4.63;;
1004;SDS011;491;53.480;10.174;2023-03-08T08:58:03;4.97;;;2.83;;
1004;SDS011;491;53.480;10.174;2023-03-08T09:00:30;6.90;;;4.30;;
1004;SDS011;491;53.480;10.174;2023-03-08T09:02:57;6.33;;;3.83;;
1004;SDS011;491;53.480;10.174;2023-03-08T09:05:23;6.47;;;4.60;;
1004;SDS011;491;53.480;10.174;2023-03-08T09:07:49;9.63;;;5.27;;
1004;SDS011;491;53.480;10.174;2023-03-08T09:10:17;4.97;;;3.60;;
1004;SDS011;491;53.480;10.174;2023-03-08T09:12:43;5.87;;;2.33;;
1004;SDS011;491;53.480;10.174;2023-03-08T09:15:09;5.57;;;3.67;;
1004;SDS011;491;53.480;10.174;2023-03-08T09:17:36;7.60;;;3.90;;
1004;SDS011;491;53.480;10.174;2023-03-08T09:20:02;8.30;;;4.50;;
1004;SDS011;491;53.480;10.174;2023-03-08T09:22:30;5.20;;;3.83;;
1004;SDS011;491;53.480;10.174;2023-03-08T09:24:56;5.57;;;4.13;;
1004;SDS011;491;53.480;10.174;2023-03-08T09:27:22;7.87;;;4.77;;
1004;SDS011;491;53.480;10.174;2023-03-08T09:29:48;7.83;;;4.03;;
1004;SDS011;491;53.480;10.174;2023-03-08T09:32:14;7.90;;;4.20;;
1004;SDS011;491;53.480;10.174;2023-03-08T09:34:40;5.77;;;3.70;;
1004;SDS011;491;53.480;10.174;2023-03-08T09:37:06;5.47;;;3.50;;
1004;SDS011;491;53.480;10.174;2023-03-08T09:39:32;8.50;;;5.23;;
1004;SDS011;491;53.480;10.174;2023-03-08T09:41:58;6.53;;;3.63;;
1004;SDS011;491;53.480;10.174;2023-03-08T09:44:38;9.37;;;4.20;;
1004;SDS011;491;53.480;10.174;2023-03-08T09:47:18;5.60;;;3.20;;
1004;SDS011;491;53.480;10.174;2023-03-08T09:49:49;6.30;;;3.90;;
1004;SDS011;491;53.480;10.174;2023-03-08T09:52:31;6.00;;;4.30;;
1004;SDS011;491;53.480;10.174;2023-03-08T09:55:02;4.33;;;2.60;;
1004;SDS011;491;53.480;10.174;2023-03-08T09:57:29;5.37;;;3.43;;
1004;SDS011;491;53.480;10.174;2023-03-08T09:59:59;4.53;;;2.47;;
1004;SDS011;491;53.480;10.174;2023-03-08T10:07:59;4.43;;;3.37;;
1004;SDS011;491;53.480;10.174;2023-03-08T10:15:45;5.80;;;3.30;;
1004;SDS011;491;53.480;10.174;2023-03-08T10:20:57;2.63;;;2.30;;
1004;SDS011;491;53.480;10.174;2023-03-08T10:23:26;5.03;;;2.60;;
1004;SDS011;491;53.480;10.174;2023-03-08T10:25:52;3.80;;;2.00;;
1004;SDS011;491;53.480;10.174;2023-03-08T10:28:19;4.17;;;2.23;;
1004;SDS011;491;53.480;10.174;2023-03-08T10:30:47;5.37;;;2.03;;
1004;SDS011;491;53.480;10.174;2023-03-08T10:33:14;6.63;;;2.63;;
1004;SDS011;491;53.480;10.174;2023-03-08T10:38:34;5.10;;;2.90;;
1004;SDS011;491;53.480;10.174;2023-03-08T10:43:56;7.03;;;2.57;;
1004;SDS011;491;53.480;10.174;2023-03-08T10:46:24;5.93;;;3.07;;
1004;SDS011;491;53.480;10.174;2023-03-08T10:48:50;4.93;;;2.60;;
1004;SDS011;491;53.480;10.174;2023-03-08T10:51:18;2.93;;;2.47;;
1004;SDS011;491;53.480;10.174;2023-03-08T10:56:43;7.53;;;2.87;;
1004;SDS011;491;53.480;10.174;2023-03-08T10:59:15;8.37;;;3.33;;
1004;SDS011;491;53.480;10.174;2023-03-08T11:01:54;4.27;;;2.03;;
1004;SDS011;491;53.480;10.174;2023-03-08T11:04:21;6.67;;;2.90;;
1004;SDS011;491;53.480;10.174;2023-03-08T11:06:48;6.70;;;2.17;;
1004;SDS011;491;53.480;10.174;2023-03-08T11:09:18;6.03;;;2.03;;
1004;SDS011;491;53.480;10.174;2023-03-08T11:11:44;3.37;;;2.87;;
1004;SDS011;491;53.480;10.174;2023-03-08T11:14:10;5.97;;;3.17;;
1004;SDS011;491;53.480;10.174;2023-03-08T11:16:54;2.60;;;1.67;;
1004;SDS011;491;53.480;10.174;2023-03-08T11:21:58;4.47;;;2.47;;
1004;SDS011;491;53.480;10.174;2023-03-08T11:24:40;2.57;;;1.43;;
1004;SDS011;491;53.480;10.174;2023-03-08T11:29:52;5.40;;;1.80;;
1004;SDS011;491;53.480;10.174;2023-03-08T11:38:02;3.37;;;1.57;;
1004;SDS011;491;53.480;10.174;2023-03-08T11:40:51;3.60;;;1.80;;
1004;SDS011;491;53.480;10.174;2023-03-08T11:43:25;2.33;;;1.10;;
1004;SDS011;491;53.480;10.174;2023-03-08T11:46:01;2.63;;;1.73;;
1004;SDS011;491;53.480;10.174;2023-03-08T11:48:33;19.00;;;9.83;;
1004;SDS011;491;53.480;10.174;2023-03-08T11:51:05;13.90;;;7.60;;
1004;SDS011;491;53.480;10.174;2023-03-08T11:53:37;3.77;;;2.13;;
1004;SDS011;491;53.480;10.174;2023-03-08T11:56:24;3.23;;;1.37;;
1004;SDS011;491;53.480;10.174;2023-03-08T11:58:57;1.60;;;1.00;;
1004;SDS011;491;53.480;10.174;2023-03-08T12:01:29;7.20;;;1.50;;
1004;SDS011;491;53.480;10.174;2023-03-08T12:04:02;2.60;;;1.17;;
1004;SDS011;491;53.480;10.174;2023-03-08T12:06:33;3.10;;;1.63;;
1004;SDS011;491;53.480;10.174;2023-03-08T12:11:53;3.75;;;2.05;;
1004;SDS011;491;53.480;10.174;2023-03-08T12:14:25;2.70;;;1.53;;
1004;SDS011;491;53.480;10.174;2023-03-08T12:16:58;2.63;;;1.10;;
1004;SDS011;491;53.480;10.174;2023-03-08T12:19:38;1.70;;;0.90;;
1004;SDS011;491;53.480;10.174;2023-03-08T12:22:22;2.87;;;1.03;;
1004;SDS011;491;53.480;10.174;2023-03-08T12:24:57;7.60;;;2.40;;
1004;SDS011;491;53.480;10.174;2023-03-08T12:27:39;4.13;;;1.10;;
1004;SDS011;491;53.480;10.174;2023-03-08T12:32:51;1.40;;;0.40;;
1004;SDS011;491;53.480;10.174;2023-03-08T12:35:24;2.67;;;1.57;;
1004;SDS011;491;53.480;10.174;2023-03-08T12:37:54;3.03;;;1.03;;
1004;SDS011;491;53.480;10.174;2023-03-08T12:40:34;2.17;;;1.00;;
1004;SDS011;491;53.480;10.174;2023-03-08T12:43:04;2.87;;;1.47;;
1004;SDS011;491;53.480;10.174;2023-03-08T12:45:30;1.43;;;0.93;;
1004;SDS011;491;53.480;10.174;2023-03-08T12:50:29;2.30;;;1.13;;
1004;SDS011;491;53.480;10.174;2023-03-08T12:52:55;3.63;;;1.00;;
1004;SDS011;491;53.480;10.174;2023-03-08T12:55:26;2.57;;;0.70;;
1004;SDS011;491;53.480;10.174;2023-03-08T12:57:56;2.53;;;1.17;;
1004;SDS011;491;53.480;10.174;2023-03-08T13:00:23;2.43;;;1.80;;
1004;SDS011;491;53.480;10.174;2023-03-08T13:03:23;1.83;;;1.10;;
1004;SDS011;491;53.480;10.174;2023-03-08T13:05:51;2.90;;;0.70;;
1004;SDS011;491;53.480;10.174;2023-03-08T13:08:21;3.07;;;1.03;;
1004;SDS011;491;53.480;10.174;2023-03-08T13:13:17;1.73;;;1.03;;
1004;SDS011;491;53.480;10.174;2023-03-08T13:15:45;2.93;;;0.90;;
1004;SDS011;491;53.480;10.174;2023-03-08T13:18:13;2.00;;;0.70;;
1004;SDS011;491;53.480;10.174;2023-03-08T13:28:20;2.33;;;1.20;;
1004;SDS011;491;53.480;10.174;2023-03-08T13:30:56;1.43;;;0.60;;
1004;SDS011;491;53.480;10.174;2023-03-08T13:33:26;8.90;;;4.87;;
1004;SDS011;491;53.480;10.174;2023-03-08T13:38:37;4.90;;;1.30;;
1004;SDS011;491;53.480;10.174;2023-03-08T13:41:03;2.37;;;1.07;;
1004;SDS011;491;53.480;10.174;2023-03-08T13:43:30;2.27;;;1.33;;
1004;SDS011;491;53.480;10.174;2023-03-08T13:45:58;3.80;;;1.27;;
1004;SDS011;491;53.480;10.174;2023-03-08T13:48:25;3.07;;;1.67;;
1004;SDS011;491;53.480;10.174;2023-03-08T13:50:53;7.03;;;4.50;;
1004;SDS011;491;53.480;10.174;2023-03-08T13:53:24;1.70;;;0.67;;
1004;SDS011;491;53.480;10.174;2023-03-08T13:55:51;1.67;;;0.87;;
1004;SDS011;491;53.480;10.174;2023-03-08T13:58:24;2.17;;;0.70;;
1004;SDS011;491;53.480;10.174;2023-03-08T14:00:57;2.20;;;0.93;;
1004;SDS011;491;53.480;10.174;2023-03-08T14:03:25;1.20;;;0.47;;
1004;SDS011;491;53.480;10.174;2023-03-08T14:05:52;1.67;;;1.20;;
1004;SDS011;491;53.480;10.174;2023-03-08T14:08:19;2.43;;;0.93;;
1004;SDS011;491;53.480;10.174;2023-03-08T14:10:47;5.00;;;1.40;;
1004;SDS011;491;53.480;10.174;2023-03-08T14:13:30;4.00;;;1.50;;
1004;SDS011;491;53.480;10.174;2023-03-08T14:15:58;2.53;;;0.70;;
1004;SDS011;491;53.480;10.174;2023-03-08T14:18:42;2.97;;;1.70;;
1004;SDS011;491;53.480;10.174;2023-03-08T14:21:15;3.10;;;1.73;;
1004;SDS011;491;53.480;10.174;2023-03-08T14:23:45;3.53;;;1.57;;
1004;SDS011;491;53.480;10.174;2023-03-08T14:29:03;3.70;;;1.67;;
1004;SDS011;491;53.480;10.174;2023-03-08T14:31:33;1.53;;;0.80;;
1004;SDS011;491;53.480;10.174;2023-03-08T14:34:01;2.77;;;2.03;;
1004;SDS011;491;53.480;10.174;2023-03-08T14:36:28;1.80;;;0.80;;
1004;SDS011;491;53.480;10.174;2023-03-08T14:38:55;1.30;;;0.70;;
1004;SDS011;491;53.480;10.174;2023-03-08T14:41:30;2.10;;;1.00;;
1004;SDS011;491;53.480;10.174;2023-03-08T14:43:57;1.70;;;1.00;;
1004;SDS011;491;53.480;10.174;2023-03-08T14:46:23;8.03;;;4.20;;
1004;SDS011;491;53.480;10.174;2023-03-08T14:48:56;2.83;;;2.40;;
1004;SDS011;491;53.480;10.174;2023-03-08T14:51:27;8.00;;;2.53;;
1004;SDS011;491;53.480;10.174;2023-03-08T14:54:01;3.67;;;1.47;;
1004;SDS011;491;53.480;10.174;2023-03-08T14:56:28;1.90;;;0.87;;
1004;SDS011;491;53.480;10.174;2023-03-08T14:58:54;1.60;;;0.90;;
1004;SDS011;491;53.480;10.174;2023-03-08T15:01:27;3.07;;;1.17;;
1004;SDS011;491;53.480;10.174;2023-03-08T15:03:53;3.90;;;1.33;;
1004;SDS011;491;53.480;10.174;2023-03-08T15:06:20;2.37;;;0.80;;
1004;SDS011;491;53.480;10.174;2023-03-08T15:08:47;1.67;;;0.73;;
1004;SDS011;491;53.480;10.174;2023-03-08T15:11:13;1.90;;;1.17;;
1004;SDS011;491;53.480;10.174;2023-03-08T15:13:39;2.00;;;1.20;;
1004;SDS011;491;53.480;10.174;2023-03-08T15:16:06;2.70;;;1.77;;
1004;SDS011;491;53.480;10.174;2023-03-08T15:18:32;4.13;;;1.10;;
1004;SDS011;491;53.480;10.174;2023-03-08T15:20:58;4.90;;;1.17;;
1004;SDS011;491;53.480;10.174;2023-03-08T15:23:25;2.07;;;1.23;;
1004;SDS011;491;53.480;10.174;2023-03-08T15:25:52;5.97;;;3.83;;
1004;SDS011;491;53.480;10.174;2023-03-08T15:28:20;3.40;;;2.30;;
1004;SDS011;491;53.480;10.174;2023-03-08T15:30:47;3.03;;;2.60;;
1004;SDS011;491;53.480;10.174;2023-03-08T15:33:13;4.47;;;2.30;;
1004;SDS011;491;53.480;10.174;2023-03-08T15:35:39;2.00;;;0.80;;
1004;SDS011;491;53.480;10.174;2023-03-08T15:38:10;2.00;;;1.00;;
1004;SDS011;491;53.480;10.174;2023-03-08T15:40:37;3.00;;;1.93;;
1004;SDS011;491;53.480;10.174;2023-03-08T15:43:03;1.93;;;0.70;;
1004;SDS011;491;53.480;10.174;2023-03-08T15:45:28;3.27;;;1.30;;
1004;SDS011;491;53.480;10.174;2023-03-08T15:48:01;10.90;;;8.73;;
1004;SDS011;491;53.480;10.174;2023-03-08T15:50:27;1.83;;;1.53;;
1004;SDS011;491;53.480;10.174;2023-03-08T15:52:54;1.87;;;1.20;;
1004;SDS011;491;53.480;10.174;2023-03-08T15:55:20;2.70;;;0.90;;
1004;SDS011;491;53.480;10.174;2023-03-08T15:57:47;5.13;;;1.77;;
1004;SDS011;491;53.480;10.174;2023-03-08T16:00:14;4.67;;;2.00;;
1004;SDS011;491;53.480;10.174;2023-03-08T16:02:40;4.77;;;1.93;;
1004;SDS011;491;53.480;10.174;2023-03-08T16:05:07;4.10;;;1.80;;
1004;SDS011;491;53.480;10.174;2023-03-08T16:07:33;1.90;;;1.47;;
1004;SDS011;491;53.480;10.174;2023-03-08T16:09:59;1.47;;;1.13;;
1004;SDS011;491;53.480;10.174;2023-03-08T16:12:25;5.13;;;1.27;;
1004;SDS011;491;53.480;10.174;2023-03-08T16:14:51;2.67;;;1.40;;
1004;SDS011;491;53.480;10.174;2023-03-08T16:17:19;2.87;;;1.30;;
1004;SDS011;491;53.480;10.174;2023-03-08T16:19:45;3.47;;;1.27;;
1004;SDS011;491;53.480;10.174;2023-03-08T16:22:11;1.77;;;1.50;;